createdAt,value
2023-03-19T00:02:18.042Z,67.90
2023-03-19T00:07:20.090Z,67.90
2023-03-19T00:12:21.860Z,67.90
2023-03-19T00:17:23.525Z,67.80
2023-03-19T00:22:25.663Z,67.70
2023-03-19T00:27:27.588Z,67.80
2023-03-19T00:32:30.164Z,67.70
2023-03-19T00:37:32.519Z,67.60
2023-03-19T00:42:34.536Z,67.60
2023-03-19T00:47:36.336Z,67.60
2023-03-19T00:52:37.948Z,67.60
2023-03-19T00:57:39.632Z,67.60
2023-03-19T01:02:41.759Z,67.60
2023-03-19T01:07:43.473Z,67.50
2023-03-19T01:12:45.306Z,67.60
2023-03-19T01:17:47.762Z,67.50
2023-03-19T01:22:49.616Z,67.50
2023-03-19T01:27:52.107Z,67.50
2023-03-19T01:32:53.900Z,67.40
2023-03-19T01:37:55.760Z,67.50
2023-03-19T01:43:12.737Z,67.50
2023-03-19T01:48:20.980Z,67.40
2023-03-19T01:53:32.643Z,67.40
2023-03-19T01:58:34.562Z,67.30
2023-03-19T02:03:37.715Z,67.30
2023-03-19T02:08:40.578Z,67.30
2023-03-19T02:13:42.557Z,67.30
2023-03-19T02:18:44.219Z,67.30
2023-03-19T02:23:46.673Z,67.30
2023-03-19T02:28:49.775Z,67.30
2023-03-19T02:34:01.225Z,67.20
2023-03-19T02:39:04.279Z,67.10
2023-03-19T02:44:06.509Z,67.20
2023-03-19T02:49:08.093Z,67.10
2023-03-19T02:54:09.751Z,67.10
2023-03-19T02:59:11.649Z,67.10
2023-03-19T03:04:16.754Z,68.10
2023-03-19T03:09:18.734Z,67.00
2023-03-19T03:14:20.369Z,67.00
2023-03-19T03:19:22.097Z,67.00
2023-03-19T03:24:24.293Z,67.00
2023-03-19T03:29:26.105Z,67.00
2023-03-19T03:34:27.786Z,67.00
2023-03-19T03:39:29.672Z,67.00
2023-03-19T03:44:31.504Z,66.90
2023-03-19T03:49:33.214Z,66.90
2023-03-19T03:54:34.966Z,67.00
2023-03-19T03:59:36.709Z,67.00
2023-03-19T04:04:38.381Z,66.90
2023-03-19T04:09:40.096Z,66.90
2023-03-19T04:14:41.751Z,67.80
2023-03-19T04:19:44.066Z,66.80
2023-03-19T04:24:45.773Z,66.80
2023-03-19T04:29:47.743Z,66.80
2023-03-19T04:34:49.617Z,66.80
2023-03-19T04:39:51.520Z,66.80
2023-03-19T04:44:53.625Z,66.80
2023-03-19T06:02:58.224Z,66.20
2023-03-19T06:07:59.915Z,66.20
2023-03-19T06:13:01.493Z,66.10
2023-03-19T06:18:03.373Z,66.20
2023-03-19T06:23:05.091Z,66.20
2023-03-19T06:28:06.873Z,66.10
2023-03-19T06:33:08.660Z,66.10
2023-03-19T06:38:10.393Z,66.20
2023-03-19T06:43:13.026Z,66.10
2023-03-19T06:48:14.963Z,66.00
2023-03-19T06:53:16.886Z,66.10
2023-03-19T06:58:18.449Z,66.10
2023-03-19T07:03:20.053Z,66.20
2023-03-19T07:08:21.700Z,66.30
2023-03-19T07:13:23.444Z,66.20
2023-03-19T07:18:25.435Z,66.20
2023-03-19T07:23:27.303Z,66.20
2023-03-19T07:28:29.219Z,66.10
2023-03-19T07:33:31.486Z,66.20
2023-03-19T07:38:33.209Z,66.10
2023-03-19T07:43:34.861Z,66.20
2023-03-19T07:48:36.976Z,66.30
2023-03-19T07:53:38.534Z,66.20
2023-03-19T07:58:40.316Z,66.20
2023-03-19T08:03:42.103Z,66.20
2023-03-19T08:08:43.775Z,66.20
2023-03-19T08:13:45.870Z,66.20
2023-03-19T08:18:47.529Z,66.20
2023-03-19T08:23:49.082Z,66.20
2023-03-19T08:28:51.379Z,66.20
2023-03-19T08:33:52.995Z,66.70
2023-03-19T08:38:54.940Z,67.80
2023-03-19T08:43:56.739Z,67.80
2023-03-19T08:48:58.438Z,68.10
2023-03-19T08:54:00.283Z,68.10
2023-03-19T08:59:02.100Z,67.80
2023-03-19T09:04:04.165Z,67.50
2023-03-19T09:09:06.511Z,67.50
2023-03-19T09:14:08.242Z,67.40
2023-03-19T09:19:10.091Z,67.50
2023-03-19T09:24:12.001Z,68.50
2023-03-19T09:29:13.932Z,67.40
2023-03-19T09:34:16.808Z,67.40
2023-03-19T09:39:18.456Z,67.40
2023-03-19T09:44:26.574Z,67.20
2023-03-19T09:49:33.642Z,67.30
2023-03-19T09:54:37.606Z,67.30
2023-03-19T09:59:39.420Z,67.20
2023-03-19T10:04:43.610Z,67.30
2023-03-19T10:09:49.852Z,67.20
2023-03-19T10:15:01.965Z,67.20
2023-03-19T10:20:22.414Z,67.00
2023-03-19T10:25:26.430Z,67.10
2023-03-19T10:30:28.970Z,66.90
2023-03-19T10:35:43.528Z,67.00
2023-03-19T10:40:51.437Z,67.00
2023-03-19T10:45:54.280Z,67.00
2023-03-19T10:50:58.825Z,67.00
2023-03-19T10:56:02.804Z,66.90
2023-03-19T11:01:07.647Z,66.90
2023-03-19T11:06:28.145Z,68.10
2023-03-19T11:11:37.204Z,68.00
2023-03-19T11:16:49.291Z,68.00
2023-03-19T11:22:00.727Z,68.00
2023-03-19T11:27:03.307Z,67.90
2023-03-19T11:32:23.777Z,68.00
2023-03-19T11:37:31.555Z,68.00
2023-03-19T11:42:36.187Z,67.90
2023-03-19T11:47:45.974Z,68.00
2023-03-19T11:52:59.602Z,67.90
2023-03-19T11:58:19.606Z,68.30
2023-03-19T12:03:30.480Z,70.60
2023-03-19T12:08:41.379Z,69.60
2023-03-19T12:14:01.759Z,68.60
2023-03-19T12:19:13.182Z,68.80
2023-03-19T12:24:26.115Z,68.80
2023-03-19T12:29:35.001Z,68.70
2023-03-19T12:34:41.792Z,69.00
2023-03-19T12:39:55.908Z,68.60
2023-03-19T12:44:59.212Z,68.60
2023-03-19T12:50:09.394Z,68.40
2023-03-19T12:55:21.920Z,68.30
2023-03-19T13:00:30.139Z,68.30
2023-03-19T13:05:34.379Z,68.90
2023-03-19T13:10:36.362Z,69.60
2023-03-19T13:15:44.850Z,69.30
2023-03-19T13:21:04.319Z,68.60
2023-03-19T13:26:09.645Z,68.80
2023-03-19T13:31:27.119Z,68.70
2023-03-19T13:36:30.824Z,71.10
2023-03-19T13:41:32.391Z,73.60
2023-03-19T13:46:38.715Z,72.70
2023-03-19T13:51:40.454Z,73.10
2023-03-19T13:57:04.887Z,72.90
2023-03-19T14:02:15.844Z,71.50
2023-03-19T14:07:46.956Z,71.10
2023-03-19T14:12:49.039Z,70.80
2023-03-19T14:17:51.066Z,70.40
2023-03-19T14:23:11.892Z,70.00
2023-03-19T14:28:16.745Z,69.80
2023-03-19T14:33:37.602Z,69.50
2023-03-19T14:38:43.037Z,69.20
2023-03-19T14:43:57.010Z,69.00
2023-03-19T14:48:58.595Z,68.80
2023-03-19T14:54:04.491Z,68.30
2023-03-19T14:59:07.717Z,68.20
2023-03-19T15:04:10.514Z,68.80
2023-03-19T15:09:27.095Z,69.60
2023-03-19T15:14:51.917Z,68.80
2023-03-19T15:19:54.560Z,67.90
2023-03-19T15:25:04.229Z,69.40
2023-03-19T15:30:29.067Z,68.80
2023-03-19T15:35:33.030Z,69.20
2023-03-19T15:40:36.947Z,69.40
2023-03-19T15:45:39.443Z,70.00
2023-03-19T15:50:42.760Z,70.20
2023-03-19T15:55:44.774Z,70.70
2023-03-19T16:00:47.034Z,71.10
2023-03-19T16:05:58.729Z,69.20
2023-03-19T16:11:25.954Z,68.80
2023-03-19T16:16:32.632Z,68.60
2023-03-19T16:21:37.084Z,68.50
2023-03-19T16:26:43.055Z,68.80
2023-03-19T16:32:06.661Z,68.70
2023-03-19T16:37:25.829Z,68.90
2023-03-19T16:42:29.337Z,68.80
2023-03-19T16:47:30.944Z,69.90
2023-03-19T16:52:32.594Z,69.60
2023-03-19T16:57:34.435Z,69.60
2023-03-19T17:02:36.195Z,69.90
2023-03-19T17:07:37.854Z,70.20
2023-03-19T17:12:39.786Z,70.00
2023-03-19T17:17:41.567Z,70.00
2023-03-19T17:22:43.239Z,70.00
2023-03-19T17:27:45.811Z,71.80
2023-03-19T17:32:49.670Z,71.10
2023-03-19T17:37:51.644Z,70.80
2023-03-19T17:42:53.637Z,70.70
2023-03-19T17:47:56.812Z,70.80
2023-03-19T17:52:58.930Z,70.70
2023-03-19T17:58:00.740Z,70.60
2023-03-19T18:03:02.627Z,70.60
2023-03-19T18:08:04.331Z,70.80
2023-03-19T18:13:07.440Z,70.70
2023-03-19T18:18:15.956Z,70.80
2023-03-19T18:23:17.699Z,70.70
2023-03-19T18:28:19.363Z,70.90
2023-03-19T18:33:25.062Z,71.00
2023-03-19T18:38:26.977Z,71.60
2023-03-19T18:43:28.623Z,71.40
2023-03-19T18:48:33.082Z,71.50
2023-03-19T18:53:34.742Z,71.60
2023-03-19T18:58:38.250Z,71.70
2023-03-19T19:03:39.905Z,71.70
2023-03-19T19:08:41.744Z,71.80
2023-03-19T19:13:55.482Z,71.80
2023-03-19T19:18:58.031Z,71.80
2023-03-19T19:23:59.672Z,71.70
2023-03-19T19:29:01.318Z,71.70
2023-03-19T19:34:04.933Z,72.60
2023-03-19T19:39:06.626Z,71.60
2023-03-19T19:44:13.024Z,71.60
2023-03-19T19:49:14.861Z,71.50
2023-03-19T19:54:16.785Z,71.40
2023-03-19T19:59:18.564Z,71.40
2023-03-19T20:04:21.769Z,71.20
2023-03-19T20:09:23.930Z,71.00
2023-03-19T20:14:25.782Z,71.10
2023-03-19T20:19:27.426Z,71.20
2023-03-19T20:24:29.086Z,71.20
2023-03-19T20:29:33.936Z,70.90
2023-03-19T20:34:39.487Z,70.90
2023-03-19T20:39:41.972Z,70.70
2023-03-19T20:44:44.027Z,70.70
2023-03-19T20:49:46.685Z,70.60
2023-03-19T20:54:48.897Z,70.60
2023-03-19T20:59:50.681Z,70.50
2023-03-19T21:04:53.205Z,70.50
2023-03-19T21:09:57.824Z,70.50
2023-03-19T21:14:59.993Z,70.40
2023-03-19T21:20:02.138Z,70.60
2023-03-19T21:25:05.711Z,70.60
2023-03-19T21:30:07.794Z,70.60
2023-03-19T21:35:17.616Z,70.50
2023-03-19T21:40:20.742Z,70.20
2023-03-19T21:45:26.503Z,70.10
2023-03-19T21:50:28.197Z,69.90
2023-03-19T21:55:31.388Z,69.80
2023-03-19T22:00:33.178Z,69.70
2023-03-19T22:05:35.235Z,69.60
2023-03-19T22:10:36.984Z,69.50
2023-03-19T22:15:38.820Z,69.50
2023-03-19T22:20:41.122Z,69.30
2023-03-19T22:25:43.843Z,69.30
2023-03-19T22:30:46.798Z,69.30
2023-03-19T22:35:51.518Z,69.20
2023-03-19T22:40:54.922Z,69.20
2023-03-19T22:45:58.367Z,69.10
2023-03-19T22:51:00.228Z,69.00
2023-03-19T22:56:02.325Z,69.00
2023-03-19T23:01:19.359Z,68.90
2023-03-19T23:06:30.164Z,68.90
2023-03-19T23:11:32.537Z,68.90
2023-03-19T23:16:34.158Z,68.70
2023-03-19T23:21:35.765Z,68.70
2023-03-19T23:26:37.612Z,68.60
2023-03-19T23:31:39.260Z,68.60
2023-03-19T23:36:41.990Z,68.50
2023-03-19T23:41:46.474Z,68.60
2023-03-19T23:46:49.357Z,68.40
2023-03-19T23:51:51.523Z,68.30
2023-03-19T23:56:53.419Z,68.30
